Time;durP1;ratioP1;P1;durP2;ratioP2;P2;SDS_P1;SDS_P2;PMS_P1;PMS_P2;Temp;Humidity;BMP_temperature;BMP_pressure;BME280_temperature;BME280_humidity;BME280_pressure;Samples;Min_cycle;Max_cycle;Signal;HPM_P1;HPM_P2
2023/01/22 00:00:11;;;;;;;;;12.80;12.60;;;;;1.37;81.61;101251.09;5102576;28;8830;-60
2023/01/22 00:02:39;;;;;;;;;12.00;10.00;;;;;1.35;81.44;101250.22;5093758;28;8945;-60
2023/01/22 00:05:07;;;;;;;;;7.00;7.00;;;;;1.33;81.53;101249.41;5093953;28;9520;-60
2023/01/22 00:07:34;;;;;;;;;9.20;9.20;;;;;1.31;81.60;101248.59;5094727;28;8846;-60
2023/01/22 00:10:03;;;;;;;;;4.40;4.40;;;;;1.28;81.75;101246.03;5094653;28;9688;-60
2023/01/22 00:12:30;;;;;;;;;11.40;7.40;;;;;1.25;81.31;101252.22;5094845;28;8826;-61
2023/01/22 00:14:58;;;;;;;;;8.00;7.20;;;;;1.22;81.27;101246.16;5095253;28;8830;-61
2023/01/22 00:17:26;;;;;;;;;6.20;6.20;;;;;1.21;81.25;101252.31;5094650;28;8846;-57
2023/01/22 00:19:54;;;;;;;;;6.00;3.00;;;;;1.21;81.50;101249.69;5094919;28;8822;-60
2023/01/22 00:22:22;;;;;;;;;9.60;6.00;;;;;1.22;81.40;101252.25;5094844;28;8846;-57
2023/01/22 00:24:49;;;;;;;;;9.80;9.80;;;;;1.22;81.97;101247.00;5094361;28;8852;-58
2023/01/22 00:27:17;;;;;;;;;10.80;10.00;;;;;1.25;81.86;101246.97;5094867;28;8860;-60
2023/01/22 00:29:45;;;;;;;;;7.60;7.00;;;;;1.27;82.00;101246.91;5093398;28;9591;-60
2023/01/22 00:32:12;;;;;;;;;10.80;6.40;;;;;1.27;81.94;101244.28;5095010;28;8830;-60
2023/01/22 00:34:43;;;;;;;;;3.60;3.40;;;;;1.27;81.55;101245.16;5094838;28;8830;-57
2023/01/22 00:37:11;;;;;;;;;8.60;8.60;;;;;1.28;82.02;101243.41;5095116;28;8845;-60
2023/01/22 00:39:39;;;;;;;;;8.80;8.60;;;;;1.29;81.36;101245.13;5094773;28;9551;-60
2023/01/22 00:42:07;;;;;;;;;9.00;7.00;;;;;1.27;81.27;101237.28;5094679;28;8822;-58
2023/01/22 00:44:35;;;;;;;;;6.00;6.00;;;;;1.27;81.51;101247.78;5094384;28;8822;-60
2023/01/22 00:47:04;;;;;;;;;2.60;2.60;;;;;1.27;81.63;101241.66;5095179;28;8826;-58
2023/01/22 00:49:32;;;;;;;;;8.60;8.60;;;;;1.25;81.70;101235.59;5106446;28;8863;-58
2023/01/22 00:52:00;;;;;;;;;4.00;3.00;;;;;1.24;81.11;101240.00;5115040;28;8836;-61
2023/01/22 00:54:28;;;;;;;;;9.00;7.40;;;;;1.23;81.36;101230.38;5118949;28;8820;-61
2023/01/22 00:56:56;;;;;;;;;10.60;10.60;;;;;1.26;81.36;101234.69;5119192;28;8853;-61
2023/01/22 00:59:24;;;;;;;;;8.60;8.60;;;;;1.26;81.46;101225.09;5102474;28;8818;-60
2023/01/22 01:01:52;;;;;;;;;9.40;9.40;;;;;1.28;81.24;101232.94;5098824;28;8856;-60
2023/01/22 01:04:19;;;;;;;;;6.00;4.80;;;;;1.28;81.72;101225.91;5098733;28;8834;-61
2023/01/22 01:06:47;;;;;;;;;4.40;4.00;;;;;1.29;81.19;101225.00;5098564;28;8826;-60
2023/01/22 01:09:15;;;;;;;;;8.80;7.00;;;;;1.29;81.73;101230.25;5098549;28;9522;-60
2023/01/22 01:11:43;;;;;;;;;3.80;3.40;;;;;1.30;81.39;101233.75;5098541;28;8860;-60
2023/01/22 01:14:11;;;;;;;;;1.00;1.00;;;;;1.30;81.54;101231.97;5098746;28;8850;-59
2023/01/22 01:16:38;;;;;;;;;6.20;5.60;;;;;1.31;81.92;101230.22;5098541;28;8862;-60
2023/01/22 01:19:06;;;;;;;;;9.40;9.20;;;;;1.30;80.86;101223.25;5106097;28;8827;-61
2023/01/22 01:21:34;;;;;;;;;6.00;6.00;;;;;1.28;81.86;101225.91;5118469;28;8840;-57
2023/01/22 01:24:02;;;;;;;;;3.00;3.00;;;;;1.29;81.56;101232.03;5118453;28;8866;-60
2023/01/22 01:26:29;;;;;;;;;6.40;6.00;;;;;1.28;81.05;101222.44;5118055;28;8893;-61
2023/01/22 01:28:57;;;;;;;;;8.80;5.00;;;;;1.26;81.79;101218.97;5105335;28;8861;-58
2023/01/22 01:31:25;;;;;;;;;5.20;4.40;;;;;1.24;81.12;101219.00;5097685;28;8822;-60
2023/01/22 01:33:53;;;;;;;;;7.80;5.40;;;;;1.24;81.76;101226.88;5097826;28;8957;-58
2023/01/22 01:36:21;;;;;;;;;4.80;4.80;;;;;1.23;81.64;101230.38;5098189;28;8842;-60
2023/01/22 01:39:09;;;;;;;;;7.00;7.00;;;;;1.22;81.69;101228.66;5097911;28;8850;-57
2023/01/22 01:41:36;;;;;;;;;3.40;3.00;;;;;1.20;81.20;101222.59;5098055;28;8861;-60
2023/01/22 01:44:04;;;;;;;;;5.60;3.80;;;;;1.20;81.77;101221.72;5097698;28;8830;-60
2023/01/22 01:46:32;;;;;;;;;6.60;6.60;;;;;1.18;81.83;101219.13;5097653;28;8826;-60
2023/01/22 01:49:00;;;;;;;;;6.60;6.20;;;;;1.21;81.55;101219.06;5104619;28;9481;-60
2023/01/22 01:51:28;;;;;;;;;4.80;4.00;;;;;1.20;81.68;101214.72;5116852;28;8839;-59
2023/01/22 01:53:55;;;;;;;;;8.80;6.60;;;;;1.21;81.70;101210.34;5117442;28;9548;-60
2023/01/22 01:56:23;;;;;;;;;7.80;6.20;;;;;1.22;81.52;101214.69;5116596;28;8844;-59
2023/01/22 01:58:51;;;;;;;;;6.60;6.60;;;;;1.21;82.03;101207.72;5106088;28;9547;-60
2023/01/22 02:01:19;;;;;;;;;6.00;6.00;;;;;1.20;82.09;101208.59;5097915;28;8842;-58
2023/01/22 02:03:47;;;;;;;;;5.60;4.60;;;;;1.18;81.35;101205.16;5096748;28;8842;-60
2023/01/22 02:06:14;;;;;;;;;4.00;4.00;;;;;1.16;81.77;101210.41;5097421;28;8873;-61
2023/01/22 02:08:42;;;;;;;;;6.60;6.40;;;;;1.16;82.09;101209.56;5098128;28;8833;-60
2023/01/22 02:11:10;;;;;;;;;0.00;0.00;;;;;1.17;81.56;101206.94;5098458;28;8830;-60
2023/01/22 02:13:38;;;;;;;;;6.20;5.60;;;;;1.18;81.53;101213.00;5097575;28;8838;-61
2023/01/22 02:16:06;;;;;;;;;6.20;6.00;;;;;1.18;81.40;101215.63;5097366;28;8818;-58
2023/01/22 02:18:34;;;;;;;;;6.20;4.40;;;;;1.18;81.20;101213.00;5101320;28;8955;-60
2023/01/22 02:21:01;;;;;;;;;6.00;4.00;;;;;1.16;81.89;101215.66;5117797;28;8919;-60
2023/01/22 02:23:29;;;;;;;;;9.80;7.80;;;;;1.16;81.38;101210.41;5118080;28;8819;-60
2023/01/22 02:25:57;;;;;;;;;2.60;1.40;;;;;1.17;82.10;101211.28;5117632;28;8836;-60
2023/01/22 02:28:25;;;;;;;;;5.40;5.40;;;;;1.14;81.83;101214.84;5110445;28;8810;-61
2023/01/22 02:30:52;;;;;;;;;7.80;6.40;;;;;1.15;81.70;101207.84;5097738;28;8895;-60
2023/01/22 02:33:20;;;;;;;;;6.60;6.60;;;;;1.14;81.89;101208.75;5097147;28;8826;-60
2023/01/22 02:35:50;;;;;;;;;9.40;7.00;;;;;1.13;81.77;101209.66;5096512;28;8807;-59
2023/01/22 02:38:17;;;;;;;;;4.00;3.20;;;;;1.12;81.62;101214.00;5097099;28;8849;-58
2023/01/22 02:40:48;;;;;;;;;5.60;4.40;;;;;1.12;81.57;101214.00;5096998;28;8874;-61
2023/01/22 02:43:16;;;;;;;;;5.80;5.20;;;;;1.14;81.76;101206.13;5097482;28;9510;-60
2023/01/22 02:45:44;;;;;;;;;9.00;9.00;;;;;1.14;82.02;101201.72;5096860;28;8822;-61
2023/01/22 02:48:12;;;;;;;;;7.00;4.80;;;;;1.15;82.00;101206.06;5097565;28;8818;-60
2023/01/22 02:50:40;;;;;;;;;4.00;4.00;;;;;1.15;81.63;101202.59;5117507;28;8894;-59
2023/01/22 02:53:07;;;;;;;;;2.60;1.40;;;;;1.14;81.68;101206.13;5117477;28;8827;-60
2023/01/22 02:55:35;;;;;;;;;7.20;7.00;;;;;1.13;82.28;101199.16;5116962;28;8842;-60
2023/01/22 02:58:03;;;;;;;;;7.80;7.80;;;;;1.12;81.37;101195.66;5113206;28;8899;-60
2023/01/22 03:00:32;;;;;;;;;7.00;6.20;;;;;1.10;82.00;101197.47;5097387;28;8822;-59
2023/01/22 03:02:59;;;;;;;;;9.00;7.40;;;;;1.11;82.16;101196.56;5097428;28;8837;-59
2023/01/22 03:05:27;;;;;;;;;6.00;6.00;;;;;1.11;81.78;101196.56;5097262;28;8838;-58
2023/01/22 03:07:54;;;;;;;;;9.20;6.20;;;;;1.11;81.77;101199.19;5096753;28;8822;-59
2023/01/22 03:10:22;;;;;;;;;6.60;6.60;;;;;1.13;82.18;101204.41;5097202;28;8834;-58
2023/01/22 03:21:19;;;;;;;;;6.20;6.00;;;;;1.12;81.95;101193.03;5116764;28;8834;-59
2023/01/22 03:23:47;;;;;;;;;4.80;4.00;;;;;1.11;81.84;101191.31;5116973;28;8858;-59
2023/01/22 03:26:15;;;;;;;;;5.20;5.20;;;;;1.10;82.25;101189.59;5116984;28;9485;-60
2023/01/22 03:28:44;;;;;;;;;8.80;7.60;;;;;1.11;82.33;101187.81;5107112;28;8812;-58
2023/01/22 03:31:12;;;;;;;;;8.80;7.40;;;;;1.10;82.07;101194.84;5096015;28;8822;-58
2023/01/22 03:33:40;;;;;;;;;8.60;7.60;;;;;1.09;82.36;101182.63;5096071;28;8834;-59
2023/01/22 03:36:08;;;;;;;;;7.00;6.80;;;;;1.08;82.36;101183.50;5096112;28;8825;-60
2023/01/22 03:38:36;;;;;;;;;8.20;7.80;;;;;1.09;82.14;101193.13;5096036;28;8849;-58
2023/01/22 03:41:04;;;;;;;;;6.40;4.80;;;;;1.09;81.96;101181.75;5096201;28;8864;-60
2023/01/22 03:43:31;;;;;;;;;6.00;6.00;;;;;1.09;82.76;101180.00;5096325;28;8869;-60
2023/01/22 03:45:59;;;;;;;;;6.00;4.40;;;;;1.10;82.12;101188.72;5095892;28;8854;-58
2023/01/22 03:48:27;;;;;;;;;4.80;3.60;;;;;1.08;82.20;101180.88;5098641;28;8834;-59
2023/01/22 03:50:55;;;;;;;;;3.00;3.00;;;;;1.10;82.50;101179.09;5116214;28;8820;-60
2023/01/22 03:53:23;;;;;;;;;9.00;3.80;;;;;1.10;82.31;101181.72;5116457;28;8824;-58
2023/01/22 03:55:50;;;;;;;;;6.20;4.40;;;;;1.11;82.11;101174.69;5116365;28;8840;-57
2023/01/22 03:58:18;;;;;;;;;3.00;3.00;;;;;1.12;82.73;101177.31;5109975;28;8854;-59
2023/01/22 04:00:46;;;;;;;;;2.20;0.00;;;;;1.13;82.41;101178.19;5095042;28;8826;-59
2023/01/22 04:03:14;;;;;;;;;7.60;6.00;;;;;1.12;82.18;101190.41;5095112;28;8810;-58
2023/01/22 04:05:41;;;;;;;;;5.20;3.00;;;;;1.12;82.13;101187.78;5095656;28;9542;-60
2023/01/22 04:08:09;;;;;;;;;3.40;2.60;;;;;1.12;83.14;101189.53;5095397;28;8834;-60
2023/01/22 04:10:37;;;;;;;;;6.80;6.40;;;;;1.12;82.91;101181.66;5095753;28;9596;-59
2023/01/22 04:13:05;;;;;;;;;3.40;3.40;;;;;1.11;82.73;101193.94;5095642;28;8841;-61
2023/01/22 04:15:33;;;;;;;;;6.80;6.60;;;;;1.12;82.25;101197.41;5095801;28;8860;-60
2023/01/22 04:18:00;;;;;;;;;9.80;8.20;;;;;1.12;82.64;101202.66;5095156;28;8840;-58
2023/01/22 04:20:28;;;;;;;;;5.20;4.00;;;;;1.13;82.37;101193.91;5095749;28;8850;-60
2023/01/22 04:22:56;;;;;;;;;8.80;8.80;;;;;1.11;82.32;101196.56;5095370;28;8861;-59
2023/01/22 04:25:24;;;;;;;;;6.40;6.20;;;;;1.10;82.43;101197.47;5095492;28;8819;-60
2023/01/22 04:27:51;;;;;;;;;8.80;7.20;;;;;1.12;82.55;101195.66;5094413;28;8864;-58
2023/01/22 04:30:19;;;;;;;;;6.40;4.80;;;;;1.12;82.43;101193.03;5094836;28;8818;-57
2023/01/22 04:32:47;;;;;;;;;6.60;4.80;;;;;1.12;82.87;101193.03;5095213;28;8818;-60
2023/01/22 04:35:14;;;;;;;;;8.20;7.80;;;;;1.13;82.62;101188.66;5094785;28;8818;-59
2023/01/22 04:37:42;;;;;;;;;7.00;6.80;;;;;1.12;82.07;101193.03;5094649;28;9515;-58
2023/01/22 04:40:10;;;;;;;;;7.40;7.00;;;;;1.13;82.57;101188.66;5094339;28;8834;-58
2023/01/22 04:42:37;;;;;;;;;9.00;7.80;;;;;1.13;82.33;101184.28;5094319;28;8873;-59
2023/01/22 04:45:05;;;;;;;;;7.80;6.00;;;;;1.12;82.69;101189.53;5094765;28;8833;-58
2023/01/22 04:47:33;;;;;;;;;8.60;6.20;;;;;1.11;82.37;101186.06;5095228;28;8810;-58
2023/01/22 04:50:01;;;;;;;;;4.00;4.00;;;;;1.12;82.36;101192.16;5095272;28;8849;-58
2023/01/22 04:52:29;;;;;;;;;7.80;4.80;;;;;1.13;82.66;101188.66;5095231;28;8829;-59
2023/01/22 04:54:56;;;;;;;;;6.60;5.20;;;;;1.11;83.05;101186.06;5095482;28;8841;-58
2023/01/22 04:57:24;;;;;;;;;8.60;7.80;;;;;1.11;82.85;101186.06;5095691;28;8825;-58
2023/01/22 04:59:52;;;;;;;;;4.80;4.80;;;;;1.12;82.44;101187.78;5087339;28;8815;-60
2023/01/22 05:02:20;;;;;;;;;7.80;5.20;;;;;1.10;82.45;101186.97;5095730;28;8845;-60
2023/01/22 05:04:47;;;;;;;;;4.80;3.40;;;;;1.10;82.52;101194.84;5095573;28;8814;-57
2023/01/22 05:07:15;;;;;;;;;3.00;1.00;;;;;1.09;82.73;101185.25;5095062;28;8834;-61
2023/01/22 05:09:43;;;;;;;;;11.40;6.60;;;;;1.10;82.50;101186.09;5095289;28;8819;-60
2023/01/22 05:12:11;;;;;;;;;8.60;6.80;;;;;1.10;82.59;101191.34;5095604;28;8837;-59
2023/01/22 05:14:39;;;;;;;;;4.80;4.80;;;;;1.10;82.69;101188.72;5095437;28;8826;-60
2023/01/22 05:17:06;;;;;;;;;5.40;5.40;;;;;1.11;82.44;101195.69;5095126;28;8836;-60
2023/01/22 05:19:34;;;;;;;;;9.20;9.20;;;;;1.11;82.91;101191.31;5095129;28;8833;-60
2023/01/22 05:22:02;;;;;;;;;1.00;0.60;;;;;1.09;82.83;101187.88;5095745;28;8838;-61
2023/01/22 05:24:29;;;;;;;;;6.40;6.40;;;;;1.09;82.90;101187.88;5095351;28;8810;-61
2023/01/22 05:26:57;;;;;;;;;12.00;9.40;;;;;1.07;82.75;101189.63;5095390;28;8826;-60
2023/01/22 05:29:26;;;;;;;;;4.40;4.40;;;;;1.08;83.61;101196.59;5094541;28;9737;-59
2023/01/22 05:31:53;;;;;;;;;5.20;4.00;;;;;1.09;83.01;101193.13;5094734;28;8814;-60
2023/01/22 05:34:21;;;;;;;;;9.40;8.60;;;;;1.08;82.76;101196.59;5094369;28;8853;-60
2023/01/22 05:36:49;;;;;;;;;9.80;9.20;;;;;1.09;82.59;101190.50;5094748;28;8826;-61
2023/01/22 05:39:17;;;;;;;;;5.60;4.80;;;;;1.09;83.09;101198.34;5096831;28;8846;-60
2023/01/22 05:41:44;;;;;;;;;10.40;9.40;;;;;1.12;82.48;101197.41;5098549;28;8814;-58
2023/01/22 05:44:12;;;;;;;;;6.40;4.00;;;;;1.11;83.35;101187.81;5098646;28;8837;-58
2023/01/22 05:46:39;;;;;;;;;7.40;6.60;;;;;1.11;83.00;101185.19;5098631;28;8833;-59
2023/01/22 05:49:07;;;;;;;;;7.80;6.40;;;;;1.11;82.79;101186.06;5098551;28;8825;-58
2023/01/22 05:51:35;;;;;;;;;5.60;5.20;;;;;1.13;83.54;101183.44;5098129;28;8843;-57
2023/01/22 05:54:03;;;;;;;;;7.00;6.20;;;;;1.13;83.49;101184.28;5098308;28;8944;-57
2023/01/22 05:56:30;;;;;;;;;6.00;3.60;;;;;1.12;83.36;101187.78;5098009;28;8810;-57
2023/01/22 05:58:58;;;;;;;;;8.20;6.60;;;;;1.11;83.50;101182.56;5097726;28;8852;-57
2023/01/22 06:01:26;;;;;;;;;3.80;3.80;;;;;1.12;83.33;101179.94;5098194;28;8834;-59
2023/01/22 06:03:54;;;;;;;;;6.80;4.40;;;;;1.12;83.30;101187.78;5098411;28;8830;-57
2023/01/22 06:06:21;;;;;;;;;9.80;9.00;;;;;1.14;83.07;101183.38;5098020;28;8825;-60
2023/01/22 06:08:51;;;;;;;;;6.80;6.60;;;;;1.14;83.21;101186.00;5098325;28;9685;-58
2023/01/22 06:11:19;;;;;;;;;7.60;6.40;;;;;1.14;83.44;101179.91;5098066;28;8865;-58
2023/01/22 06:13:46;;;;;;;;;6.20;6.20;;;;;1.14;82.62;101172.03;5097846;28;8830;-58
2023/01/22 06:16:14;;;;;;;;;7.00;6.80;;;;;1.14;83.16;101180.75;5096999;28;8835;-57
2023/01/22 06:18:42;;;;;;;;;4.80;3.80;;;;;1.13;83.03;101186.88;5097412;28;8814;-59
2023/01/22 06:21:10;;;;;;;;;3.60;3.20;;;;;1.14;83.76;101179.91;5097986;28;8935;-58
2023/01/22 06:23:37;;;;;;;;;6.60;6.60;;;;;1.13;83.16;101181.66;5098184;28;9524;-57
2023/01/22 06:26:05;;;;;;;;;9.60;8.20;;;;;1.12;83.37;101182.56;5097249;28;8829;-59
2023/01/22 06:28:33;;;;;;;;;6.00;6.00;;;;;1.12;83.32;101185.16;5097376;28;8802;-58
2023/01/22 06:31:04;;;;;;;;;11.20;10.40;;;;;1.11;84.08;101186.06;5097291;28;8844;-57
2023/01/22 06:33:33;;;;;;;;;4.80;4.00;;;;;1.11;83.82;101174.69;5097536;28;8834;-60
2023/01/22 06:36:01;;;;;;;;;5.00;4.40;;;;;1.11;83.87;101185.19;5097212;28;8826;-60
2023/01/22 06:38:28;;;;;;;;;4.40;4.00;;;;;1.10;83.86;101189.59;5097425;28;8841;-59
2023/01/22 06:40:56;;;;;;;;;7.40;6.40;;;;;1.10;83.69;101183.47;5097886;28;8814;-59
2023/01/22 06:43:24;;;;;;;;;6.40;6.00;;;;;1.10;83.86;101188.72;5097756;28;8841;-59
2023/01/22 06:45:51;;;;;;;;;5.40;5.20;;;;;1.09;83.82;101192.25;5097210;28;8834;-57
2023/01/22 06:48:19;;;;;;;;;5.60;5.60;;;;;1.08;83.85;101191.38;5097536;28;8830;-58
2023/01/22 06:50:47;;;;;;;;;6.40;6.00;;;;;1.08;83.94;101201.84;5097161;28;8861;-60
2023/01/22 06:53:15;;;;;;;;;7.40;7.40;;;;;1.08;83.30;101199.22;5097580;28;8822;-60
2023/01/22 06:55:43;;;;;;;;;9.80;9.60;;;;;1.07;83.75;101202.75;5097276;28;9601;-57
2023/01/22 06:58:11;;;;;;;;;5.60;5.60;;;;;1.08;83.43;101204.47;5096873;28;8818;-60
2023/01/22 07:00:38;;;;;;;;;2.20;1.80;;;;;1.08;83.32;101209.72;5096861;28;8830;-57
2023/01/22 07:03:06;;;;;;;;;6.80;6.80;;;;;1.10;83.61;101218.44;5096905;28;8830;-60
2023/01/22 07:05:36;;;;;;;;;5.20;5.20;;;;;1.11;83.72;101222.78;5096845;28;8830;-60
2023/01/22 07:08:04;;;;;;;;;6.60;4.20;;;;;1.12;83.48;101219.25;5096181;28;8873;-60
2023/01/22 07:10:31;;;;;;;;;5.60;4.40;;;;;1.13;83.47;101231.47;5096439;28;8826;-60
2023/01/22 07:13:00;;;;;;;;;3.40;3.20;;;;;1.15;83.48;101234.91;5097017;28;8818;-57
2023/01/22 07:15:27;;;;;;;;;4.40;4.40;;;;;1.17;83.80;101227.91;5096917;28;8860;-57
2023/01/22 07:17:56;;;;;;;;;9.20;7.00;;;;;1.18;83.44;101234.00;5097311;28;8860;-57
2023/01/22 07:20:24;;;;;;;;;6.20;6.20;;;;;1.18;83.47;101234.88;5097558;28;8850;-58
2023/01/22 07:22:51;;;;;;;;;4.40;4.00;;;;;1.17;83.77;101238.41;5098180;28;8857;-59
2023/01/22 07:25:19;;;;;;;;;0.80;0.80;;;;;1.19;83.84;101240.97;5097704;28;8826;-60
2023/01/22 07:27:47;;;;;;;;;3.20;3.20;;;;;1.19;83.35;101241.84;5097796;28;8837;-60
2023/01/22 07:30:15;;;;;;;;;6.00;4.00;;;;;1.20;83.24;101248.81;5096971;28;8865;-59
2023/01/22 07:32:43;;;;;;;;;10.20;9.80;;;;;1.20;83.43;101245.31;5096446;28;8814;-60
2023/01/22 07:35:11;;;;;;;;;7.00;7.00;;;;;1.21;83.23;101241.81;5096632;28;8830;-60
2023/01/22 07:37:38;;;;;;;;;5.20;5.20;;;;;1.21;83.37;101239.19;5096762;28;8830;-59
2023/01/22 07:40:07;;;;;;;;;4.80;4.60;;;;;1.23;83.49;101243.50;5096593;28;8846;-60
2023/01/22 07:42:35;;;;;;;;;7.80;6.80;;;;;1.24;83.75;101253.13;5096317;28;8810;-60
2023/01/22 07:45:05;;;;;;;;;1.80;1.80;;;;;1.27;83.65;101253.03;5096713;28;8948;-60
2023/01/22 07:47:32;;;;;;;;;7.00;6.80;;;;;1.27;83.82;101258.28;5096121;28;8826;-60
2023/01/22 07:50:00;;;;;;;;;5.60;5.20;;;;;1.28;83.32;101254.75;5095642;28;8852;-60
2023/01/22 07:52:28;;;;;;;;;5.20;3.40;;;;;1.28;83.83;101261.78;5095804;28;8827;-60
2023/01/22 07:54:56;;;;;;;;;5.20;4.40;;;;;1.29;83.38;101255.63;5095457;28;8848;-58
2023/01/22 07:57:24;;;;;;;;;6.20;4.80;;;;;1.29;83.71;101259.09;5095695;28;8842;-60
2023/01/22 07:59:51;;;;;;;;;6.20;6.00;;;;;1.29;83.43;101259.09;5095305;28;8826;-58
2023/01/22 08:02:19;;;;;;;;;5.80;5.80;;;;;1.30;83.83;101260.81;5095353;28;8842;-59
2023/01/22 08:04:47;;;;;;;;;6.20;6.20;;;;;1.29;83.86;101261.72;5095663;28;8833;-60
2023/01/22 08:07:16;;;;;;;;;6.00;6.00;;;;;1.30;83.25;101263.44;5094930;28;8834;-60
2023/01/22 08:09:44;;;;;;;;;4.40;4.00;;;;;1.34;83.89;101272.13;5095016;28;8849;-57
2023/01/22 08:12:11;;;;;;;;;7.40;7.00;;;;;1.32;83.42;101272.19;5095376;28;8842;-61
2023/01/22 08:14:39;;;;;;;;;6.20;3.80;;;;;1.31;83.91;101273.03;5095736;28;8824;-60
2023/01/22 08:17:07;;;;;;;;;6.00;6.00;;;;;1.33;83.07;101281.78;5095819;28;8830;-60
2023/01/22 08:19:35;;;;;;;;;4.80;4.00;;;;;1.33;83.37;101281.78;5095675;28;8838;-60
2023/01/22 08:22:03;;;;;;;;;8.20;6.20;;;;;1.34;83.80;101280.00;5095506;28;8858;-59
2023/01/22 08:24:30;;;;;;;;;5.00;4.00;;;;;1.35;83.99;101285.22;5095421;28;8834;-60
2023/01/22 08:26:58;;;;;;;;;9.60;9.40;;;;;1.36;83.64;101284.31;5095439;28;8826;-61
2023/01/22 08:29:26;;;;;;;;;7.20;6.20;;;;;1.37;83.70;101283.41;5095395;28;9031;-60
2023/01/22 08:31:54;;;;;;;;;9.20;7.40;;;;;1.37;83.94;101288.66;5095627;28;8830;-60
2023/01/22 08:34:22;;;;;;;;;5.20;5.20;;;;;1.39;83.86;101275.53;5095653;28;8927;-60
2023/01/22 08:36:50;;;;;;;;;7.40;6.40;;;;;1.42;83.66;101284.19;5095178;28;9487;-60
2023/01/22 08:39:17;;;;;;;;;6.00;6.00;;;;;1.45;83.67;101289.38;5095427;28;8825;-60
2023/01/22 08:41:45;;;;;;;;;8.20;7.80;;;;;1.50;83.40;101294.50;5095397;28;8826;-60
2023/01/22 08:44:13;;;;;;;;;3.00;2.60;;;;;1.53;83.37;101289.22;5095503;28;9495;-60
2023/01/22 08:46:41;;;;;;;;;3.00;3.00;;;;;1.55;83.99;101284.78;5094800;28;8846;-60
2023/01/22 08:49:09;;;;;;;;;6.60;6.60;;;;;1.58;83.28;101290.84;5094953;28;8833;-60
2023/01/22 08:51:37;;;;;;;;;3.80;2.60;;;;;1.60;83.28;101291.66;5095027;28;8992;-60
2023/01/22 08:54:05;;;;;;;;;4.00;3.60;;;;;1.64;83.29;101281.97;5094715;28;8845;-59
2023/01/22 08:56:33;;;;;;;;;3.20;3.20;;;;;1.65;83.68;101289.81;5094589;28;8850;-58
2023/01/22 08:59:05;;;;;;;;;4.80;4.40;;;;;1.68;83.96;101287.09;5094085;28;8892;-59
2023/01/22 09:01:33;;;;;;;;;9.80;6.60;;;;;1.73;82.89;101289.63;5094261;28;8849;-57
2023/01/22 09:04:01;;;;;;;;;9.00;7.00;;;;;1.75;82.96;101286.06;5094485;28;8950;-59
2023/01/22 09:06:29;;;;;;;;;4.00;4.00;;;;;1.80;83.43;101284.22;5094344;28;8849;-60
2023/01/22 09:08:58;;;;;;;;;4.80;4.40;;;;;1.83;82.88;101278.88;5094386;28;8822;-60
2023/01/22 09:11:25;;;;;;;;;3.20;3.00;;;;;1.86;82.77;101285.81;5094469;28;8832;-60
2023/01/22 09:13:55;;;;;;;;;3.80;3.20;;;;;1.87;82.85;101288.44;5096445;28;8873;-58
2023/01/22 09:16:22;;;;;;;;;6.80;6.40;;;;;1.89;83.13;101286.63;5097728;28;8856;-59
2023/01/22 09:18:50;;;;;;;;;5.20;4.40;;;;;1.91;82.78;101282.19;5098057;28;9546;-58
2023/01/22 09:21:18;;;;;;;;;4.80;4.00;;;;;1.92;83.35;101290.94;5098166;28;8849;-60
2023/01/22 09:23:46;;;;;;;;;0.80;0.80;;;;;1.94;83.04;101278.63;5098058;28;8853;-60
2023/01/22 09:26:14;;;;;;;;;4.00;4.00;;;;;1.99;83.07;101282.03;5098469;28;8910;-58
2023/01/22 09:28:42;;;;;;;;;8.20;7.00;;;;;2.02;83.22;101290.69;5097642;28;8826;-59
2023/01/22 09:31:14;;;;;;;;;9.40;9.00;;;;;2.04;82.75;101281.00;5098058;28;8826;-60
2023/01/22 09:33:42;;;;;;;;;8.00;7.20;;;;;2.07;83.01;101283.59;5097632;28;8832;-60
2023/01/22 09:36:10;;;;;;;;;5.60;5.60;;;;;2.09;82.91;101281.78;5098262;28;8849;-59
2023/01/22 09:38:38;;;;;;;;;3.60;3.00;;;;;2.08;83.00;101280.06;5097337;28;8910;-60
2023/01/22 09:41:06;;;;;;;;;5.80;4.80;;;;;2.05;82.51;101285.34;5097092;28;8854;-59
2023/01/22 09:43:34;;;;;;;;;6.40;5.80;;;;;2.02;82.42;101292.44;5097248;28;8973;-60
2023/01/22 09:46:02;;;;;;;;;9.60;6.80;;;;;1.99;82.82;101284.66;5097370;28;8837;-59
2023/01/22 09:48:30;;;;;;;;;2.00;1.80;;;;;1.99;83.09;101285.50;5096718;28;9703;-60
2023/01/22 09:50:58;;;;;;;;;5.20;4.40;;;;;1.99;83.16;101285.50;5096665;28;8842;-60
2023/01/22 09:53:26;;;;;;;;;7.00;5.20;;;;;1.99;83.30;101288.13;5097007;28;8833;-59
2023/01/22 09:55:54;;;;;;;;;6.20;6.20;;;;;2.01;82.94;101288.97;5096755;28;8846;-58
2023/01/22 09:58:22;;;;;;;;;3.00;3.00;;;;;2.01;82.60;101293.34;5096968;28;8834;-59
2023/01/22 10:00:50;;;;;;;;;8.20;6.80;;;;;2.02;82.90;101295.06;5096379;28;8814;-57
2023/01/22 10:03:18;;;;;;;;;4.20;2.80;;;;;2.02;83.19;101298.59;5097134;28;8834;-60
2023/01/22 10:05:49;;;;;;;;;5.20;4.80;;;;;2.01;82.89;101296.84;5097524;28;8838;-58
2023/01/22 10:08:17;;;;;;;;;10.20;8.00;;;;;2.03;83.16;101296.78;5097096;28;8952;-57
2023/01/22 10:10:45;;;;;;;;;6.00;6.00;;;;;2.05;82.79;101297.66;5097650;28;8822;-61
2023/01/22 10:13:14;;;;;;;;;6.60;6.20;;;;;2.06;82.64;101291.50;5097761;28;8818;-60
2023/01/22 10:15:42;;;;;;;;;6.60;6.40;;;;;2.10;82.54;101287.88;5097240;28;8822;-59
2023/01/22 10:18:10;;;;;;;;;5.20;4.40;;;;;2.12;82.56;101281.69;5097330;28;8849;-59
2023/01/22 10:20:38;;;;;;;;;6.00;4.00;;;;;2.17;83.19;101285.09;5097605;28;8868;-60
2023/01/22 10:23:06;;;;;;;;;4.00;3.20;;;;;2.21;82.62;101288.50;5095772;28;8826;-60
2023/01/22 10:25:34;;;;;;;;;8.40;6.40;;;;;2.22;83.15;101283.22;5095001;28;8964;-59
2023/01/22 10:28:03;;;;;;;;;4.00;4.00;;;;;2.23;82.74;101287.56;5095097;28;8830;-60
2023/01/22 10:30:30;;;;;;;;;7.40;6.00;;;;;2.25;82.64;101293.63;5094728;28;8980;-59
2023/01/22 10:32:59;;;;;;;;;5.20;4.80;;;;;2.26;82.78;101290.09;5094462;28;9005;-59
2023/01/22 10:35:29;;;;;;;;;4.80;4.80;;;;;2.28;82.67;101288.28;5094602;28;8972;-57
2023/01/22 10:37:57;;;;;;;;;4.40;4.40;;;;;2.33;82.47;101280.28;5095220;28;8841;-57
2023/01/22 10:40:25;;;;;;;;;4.00;3.60;;;;;2.37;82.56;101276.72;5095407;28;8837;-58
2023/01/22 10:42:53;;;;;;;;;6.60;4.40;;;;;2.41;82.30;101273.97;5096152;28;8914;-60
2023/01/22 10:45:21;;;;;;;;;1.40;1.40;;;;;2.48;82.15;101270.28;5095885;28;8830;-60
2023/01/22 10:47:50;;;;;;;;;6.00;5.60;;;;;2.54;82.25;101274.50;5095549;28;8913;-59
2023/01/22 10:50:18;;;;;;;;;6.40;5.60;;;;;2.54;82.45;101275.38;5096274;28;8968;-59
2023/01/22 10:52:46;;;;;;;;;9.00;7.60;;;;;2.51;82.52;101283.31;5096642;28;8832;-59
2023/01/22 10:55:14;;;;;;;;;6.40;6.00;;;;;2.48;82.37;101288.69;5096595;28;8906;-58
2023/01/22 10:57:44;;;;;;;;;12.00;9.00;;;;;2.43;82.44;101282.66;5097279;28;8834;-58
2023/01/22 11:00:12;;;;;;;;;6.60;5.20;;;;;2.39;82.40;101285.41;5094843;28;8952;-58
2023/01/22 11:02:41;;;;;;;;;6.00;6.00;;;;;2.36;82.80;101281.09;5094536;28;8965;-60
2023/01/22 11:05:09;;;;;;;;;6.60;6.60;;;;;2.32;82.56;101283.81;5094973;28;8961;-61
2023/01/22 11:07:36;;;;;;;;;5.60;5.60;;;;;2.26;82.88;101279.59;5094912;28;9539;-58
2023/01/22 11:10:05;;;;;;;;;6.60;6.00;;;;;2.24;82.89;101276.16;5094820;28;8841;-58
2023/01/22 11:12:33;;;;;;;;;7.40;7.00;;;;;2.24;82.63;101281.41;5095059;28;8841;-60
2023/01/22 11:15:01;;;;;;;;;6.00;5.20;;;;;2.28;82.72;101280.41;5095036;28;8826;-60
2023/01/22 11:17:29;;;;;;;;;3.20;3.00;;;;;2.33;82.52;101280.28;5094904;28;8826;-58
2023/01/22 11:19:57;;;;;;;;;8.20;6.80;;;;;2.33;82.25;101273.28;5094770;28;8861;-58
2023/01/22 11:22:26;;;;;;;;;7.40;7.00;;;;;2.38;82.21;101283.69;5095111;28;8895;-57
2023/01/22 11:24:54;;;;;;;;;1.00;1.00;;;;;2.42;82.72;101277.47;5094843;28;8822;-59
2023/01/22 11:27:22;;;;;;;;;3.00;0.80;;;;;2.44;82.74;101284.38;5093516;28;8854;-61
2023/01/22 11:29:50;;;;;;;;;6.20;6.00;;;;;2.47;82.26;101278.19;5093197;28;8888;-58
2023/01/22 11:32:18;;;;;;;;;3.80;3.60;;;;;2.45;82.14;101280.88;5094468;28;8830;-60
2023/01/22 11:34:46;;;;;;;;;6.20;4.40;;;;;2.47;82.27;101288.69;5094440;28;8854;-58
2023/01/22 11:37:15;;;;;;;;;6.80;6.00;;;;;2.45;82.81;101285.25;5094011;28;8838;-58
2023/01/22 11:39:43;;;;;;;;;6.80;5.60;;;;;2.43;82.59;101277.41;5093819;28;8899;-58
2023/01/22 11:42:11;;;;;;;;;15.20;15.20;;;;;2.43;82.12;101277.41;5092519;28;8838;-59
2023/01/22 11:44:39;;;;;;;;;4.40;4.00;;;;;2.44;82.53;101273.88;5092997;28;8834;-61
2023/01/22 11:47:07;;;;;;;;;6.00;4.80;;;;;2.45;82.48;101270.38;5092565;28;9547;-59
2023/01/22 11:49:35;;;;;;;;;5.60;4.00;;;;;2.46;82.61;101272.09;5092912;28;8891;-61
2023/01/22 11:52:03;;;;;;;;;8.80;7.20;;;;;2.49;82.64;101268.53;5093650;28;8856;-59